createdAt,value
2018-03-07T00:05:30.254Z,96.68
2018-03-07T00:08:00.712Z,96.63
2018-03-07T00:10:37.328Z,96.85
2018-03-07T00:13:06.816Z,96.93
2018-03-07T00:15:38.611Z,96.76
2018-03-07T00:18:14.340Z,96.86
2018-03-07T00:20:50.830Z,96.69
2018-03-07T00:23:30.026Z,96.60
2018-03-07T00:26:06.475Z,96.48
2018-03-07T00:28:44.101Z,96.50
2018-03-07T00:31:22.109Z,96.54
2018-03-07T00:33:52.398Z,96.56
2018-03-07T00:36:20.187Z,96.67
2018-03-07T00:38:47.920Z,96.50
2018-03-07T00:41:17.019Z,96.35
2018-03-07T00:43:44.683Z,96.67
2018-03-07T00:46:12.440Z,96.88
2018-03-07T00:48:40.325Z,96.88
2018-03-07T00:51:08.724Z,97.08
2018-03-07T00:53:37.597Z,97.10
2018-03-07T00:56:05.262Z,97.13
2018-03-07T00:58:32.856Z,96.91
2018-03-07T01:01:00.473Z,97.00
2018-03-07T01:03:28.672Z,96.88
2018-03-07T01:05:56.281Z,97.07
2018-03-07T01:08:23.907Z,96.94
2018-03-07T01:10:51.632Z,96.87
2018-03-07T01:13:20.334Z,96.87
2018-03-07T01:15:48.392Z,97.08
2018-03-07T01:18:16.358Z,97.08
2018-03-07T01:20:43.989Z,96.87
2018-03-07T01:23:12.929Z,96.92
2018-03-07T01:25:41.499Z,97.00
2018-03-07T01:28:09.172Z,96.92
2018-03-07T01:30:36.831Z,96.75
2018-03-07T01:33:05.297Z,96.80
2018-03-07T01:35:33.966Z,96.95
2018-03-07T01:38:01.648Z,96.86
2018-03-07T01:40:29.299Z,96.92
2018-03-07T01:42:56.914Z,96.79
2018-03-07T01:45:24.655Z,96.68
2018-03-07T01:47:52.371Z,96.77
2018-03-07T01:50:19.992Z,96.65
2018-03-07T01:52:47.827Z,96.66
2018-03-07T01:55:15.433Z,96.53
2018-03-07T01:57:43.058Z,96.89
2018-03-07T02:00:11.009Z,96.97
2018-03-07T02:02:38.634Z,96.84
2018-03-07T02:05:06.511Z,96.72
2018-03-07T02:07:34.547Z,96.71
2018-03-07T02:10:02.169Z,96.64
2018-03-07T02:12:29.761Z,96.65
2018-03-07T02:14:57.367Z,96.72
2018-03-07T02:17:25.597Z,96.81
2018-03-07T02:19:53.175Z,96.73
2018-03-07T02:22:20.801Z,96.65
2018-03-07T02:24:48.626Z,96.70
2018-03-07T02:27:16.268Z,96.56
2018-03-07T02:29:43.887Z,96.62
2018-03-07T02:32:12.650Z,96.65
2018-03-07T02:34:40.254Z,96.87
2018-03-07T02:37:08.141Z,96.73
2018-03-07T02:39:35.823Z,96.71
2018-03-07T02:42:03.430Z,96.79
2018-03-07T02:44:30.988Z,96.71
2018-03-07T02:46:58.580Z,96.54
2018-03-07T02:49:26.512Z,96.46
2018-03-07T02:51:54.317Z,96.73
2018-03-07T02:54:21.910Z,96.76
2018-03-07T02:56:49.534Z,96.67
2018-03-07T02:59:17.818Z,96.77
2018-03-07T03:01:45.414Z,96.83
2018-03-07T03:04:13.032Z,96.73
2018-03-07T03:06:41.830Z,96.78
2018-03-07T03:09:10.742Z,96.73
2018-03-07T03:11:38.364Z,96.63
2018-03-07T03:14:05.960Z,96.67
2018-03-07T03:16:33.575Z,96.67
2018-03-07T03:19:04.579Z,96.76
2018-03-07T03:21:32.156Z,96.77
2018-03-07T03:23:59.751Z,96.75
2018-03-07T03:26:27.380Z,96.67
2018-03-07T03:28:54.954Z,96.67
2018-03-07T03:31:22.534Z,96.39
2018-03-07T03:33:50.212Z,96.50
2018-03-07T03:36:18.432Z,96.45
2018-03-07T03:38:46.027Z,96.45
2018-03-07T03:41:18.189Z,96.38
2018-03-07T03:43:47.266Z,96.01
2018-03-07T03:46:16.170Z,95.90
2018-03-07T03:48:47.838Z,96.11
2018-03-07T03:51:18.108Z,96.30
2018-03-07T03:53:48.926Z,96.51
2018-03-07T03:56:19.680Z,96.59
2018-03-07T03:58:47.593Z,96.70
2018-03-07T04:01:15.226Z,96.85
2018-03-07T04:03:42.832Z,96.92
2018-03-07T04:06:10.473Z,96.89
2018-03-07T04:08:38.074Z,96.91
2018-03-07T04:11:06.334Z,96.49
2018-03-07T04:13:34.265Z,96.73
2018-03-07T04:16:01.887Z,96.69
2018-03-07T04:18:29.505Z,96.55
2018-03-07T04:20:57.165Z,96.55
2018-03-07T04:23:24.753Z,96.31
2018-03-07T04:25:52.444Z,95.80
2018-03-07T04:28:20.722Z,95.62
2018-03-07T04:30:48.569Z,95.90
2018-03-07T04:33:16.578Z,95.84
2018-03-07T04:35:44.223Z,96.15
2018-03-07T04:38:11.899Z,96.45
2018-03-07T04:40:39.626Z,96.39
2018-03-07T04:43:07.440Z,96.11
2018-03-07T04:45:35.719Z,95.57
2018-03-07T04:48:03.793Z,95.75
2018-03-07T04:50:31.374Z,95.79
2018-03-07T04:52:59.599Z,96.06
2018-03-07T04:55:27.268Z,96.10
2018-03-07T04:57:54.919Z,96.12
2018-03-07T05:00:22.550Z,96.28
2018-03-07T05:02:50.216Z,96.18
2018-03-07T05:05:17.882Z,95.91
2018-03-07T05:07:45.505Z,95.62
2018-03-07T05:10:13.172Z,95.83
2018-03-07T05:12:40.782Z,95.51
2018-03-07T05:15:08.510Z,95.54
2018-03-07T05:17:37.040Z,95.73
2018-03-07T05:20:04.702Z,95.72
2018-03-07T05:22:32.676Z,95.93
2018-03-07T05:25:00.344Z,96.05
2018-03-07T05:27:28.729Z,96.04
2018-03-07T05:29:56.427Z,96.19
2018-03-07T05:32:24.974Z,96.32
2018-03-07T05:34:52.607Z,96.43
2018-03-07T05:37:20.292Z,96.55
2018-03-07T05:39:47.938Z,96.22
2018-03-07T05:42:15.802Z,95.86
2018-03-07T05:44:43.484Z,95.84
2018-03-07T05:47:11.591Z,95.86
2018-03-07T05:49:39.457Z,95.92
2018-03-07T05:52:07.104Z,95.96
2018-03-07T05:54:34.860Z,95.76
2018-03-07T05:57:02.557Z,95.82
2018-03-07T05:59:30.218Z,95.81
2018-03-07T06:01:57.835Z,95.78
2018-03-07T06:04:26.646Z,95.62
2018-03-07T06:06:54.524Z,95.78
2018-03-07T06:09:23.766Z,95.79
2018-03-07T06:11:51.432Z,95.45
2018-03-07T06:14:19.064Z,94.82
2018-03-07T06:16:46.660Z,94.97
2018-03-07T06:19:14.712Z,95.14
2018-03-07T06:21:42.355Z,95.28
2018-03-07T06:24:10.281Z,95.39
2018-03-07T06:26:37.925Z,95.47
2018-03-07T06:29:06.042Z,95.79
2018-03-07T06:31:33.648Z,95.82
2018-03-07T06:34:01.304Z,96.06
2018-03-07T06:36:28.941Z,96.00
2018-03-07T06:38:56.593Z,95.61
2018-03-07T06:41:24.895Z,95.48
2018-03-07T06:43:52.547Z,95.37
2018-03-07T06:46:20.212Z,95.60
2018-03-07T06:48:47.818Z,95.60
2018-03-07T06:51:16.060Z,95.39
2018-03-07T06:53:43.697Z,95.93
2018-03-07T06:56:11.639Z,95.83
2018-03-07T06:58:39.661Z,95.83
2018-03-07T07:01:07.287Z,95.86
2018-03-07T07:03:34.882Z,96.08
2018-03-07T07:06:02.515Z,96.16
2018-03-07T07:08:30.239Z,96.18
2018-03-07T07:10:57.894Z,96.04
2018-03-07T07:13:25.638Z,96.62
2018-03-07T07:15:57.249Z,96.42
2018-03-07T07:18:24.898Z,96.28
2018-03-07T07:20:52.517Z,96.31
2018-03-07T07:23:20.833Z,95.72
2018-03-07T07:25:48.534Z,95.90
2018-03-07T07:28:16.203Z,95.62
2018-03-07T07:30:43.809Z,95.67
2018-03-07T07:33:12.638Z,95.40
2018-03-07T07:35:41.118Z,95.50
2018-03-07T07:38:10.574Z,95.08
2018-03-07T07:40:38.205Z,95.16
2018-03-07T07:43:06.007Z,95.11
2018-03-07T07:45:33.646Z,94.90
2018-03-07T07:48:01.281Z,94.76
2018-03-07T07:50:28.878Z,94.33
2018-03-07T07:52:56.525Z,94.23
2018-03-07T07:55:24.864Z,94.02
2018-03-07T07:57:52.396Z,94.19
2018-03-07T08:00:20.192Z,93.59
2018-03-07T08:02:47.839Z,93.06
2018-03-07T08:05:15.675Z,92.88
2018-03-07T08:07:43.283Z,92.81
2018-03-07T08:10:10.935Z,92.34
2018-03-07T08:12:38.671Z,92.33
2018-03-07T08:15:06.409Z,91.83
2018-03-07T08:17:34.041Z,90.87
2018-03-07T08:20:01.638Z,90.74
2018-03-07T08:22:32.309Z,90.47
2018-03-07T08:24:59.922Z,90.20
2018-03-07T08:27:28.385Z,89.89
2018-03-07T08:29:55.976Z,89.74
2018-03-07T08:32:25.132Z,89.87
2018-03-07T08:34:52.889Z,88.43
2018-03-07T08:37:20.522Z,87.75
2018-03-07T08:39:48.120Z,87.16
2018-03-07T08:42:15.735Z,85.35
2018-03-07T08:44:43.334Z,84.58
2018-03-07T08:47:11.898Z,83.41
2018-03-07T08:49:39.503Z,83.89
2018-03-07T08:52:07.150Z,85.23
2018-03-07T08:54:34.781Z,84.44
2018-03-07T08:57:02.373Z,85.01
2018-03-07T08:59:29.994Z,84.94
2018-03-07T09:01:57.581Z,84.64
2018-03-07T09:04:25.170Z,84.54
2018-03-07T09:06:52.800Z,84.41
2018-03-07T09:09:24.163Z,84.58
2018-03-07T09:11:52.344Z,84.33
2018-03-07T09:14:20.114Z,84.33
2018-03-07T09:16:48.824Z,83.93
2018-03-07T09:19:17.086Z,83.33
2018-03-07T09:21:44.819Z,82.96
2018-03-07T09:24:12.504Z,82.89
2018-03-07T09:26:40.106Z,82.14
2018-03-07T09:29:10.346Z,81.82
2018-03-07T09:31:38.028Z,81.89
2018-03-07T09:34:05.778Z,82.96
2018-03-07T09:36:33.417Z,84.23
2018-03-07T09:39:01.000Z,84.34
2018-03-07T09:41:29.890Z,84.24
2018-03-07T09:43:57.836Z,83.67
2018-03-07T09:46:25.690Z,82.21
2018-03-07T09:48:53.318Z,80.68
2018-03-07T09:51:21.903Z,79.11
2018-03-07T09:53:49.514Z,76.90
2018-03-07T09:56:17.181Z,76.25
2018-03-07T09:58:44.758Z,76.68
2018-03-07T10:01:12.403Z,75.73
2018-03-07T10:03:40.020Z,76.75
2018-03-07T10:06:07.616Z,77.93
2018-03-07T10:08:35.235Z,78.86
2018-03-07T10:11:02.876Z,79.62
2018-03-07T10:13:33.135Z,80.24
2018-03-07T10:16:00.748Z,80.63
2018-03-07T10:18:29.907Z,80.64
2018-03-07T10:20:57.507Z,81.29
2018-03-07T10:23:26.865Z,80.62
2018-03-07T10:25:54.533Z,79.25
2018-03-07T10:28:24.188Z,78.52
2018-03-07T10:30:52.110Z,78.84
2018-03-07T10:33:26.149Z,78.91
2018-03-07T10:35:53.720Z,78.82
2018-03-07T10:38:21.291Z,78.79
2018-03-07T10:40:48.810Z,79.52
2018-03-07T10:43:16.365Z,79.75
2018-03-07T10:45:43.936Z,80.03
2018-03-07T10:48:11.515Z,78.85
2018-03-07T10:50:39.151Z,79.24
2018-03-07T10:53:07.126Z,76.70
2018-03-07T10:55:34.730Z,76.56
2018-03-07T10:58:02.384Z,76.23
2018-03-07T11:00:35.564Z,76.00
2018-03-07T11:03:03.203Z,75.92
2018-03-07T11:05:31.162Z,76.32
2018-03-07T11:08:00.252Z,75.79
2018-03-07T11:10:27.959Z,75.84
2018-03-07T11:12:55.703Z,76.79
2018-03-07T11:15:23.489Z,77.16
2018-03-07T11:17:51.201Z,76.57
2018-03-07T11:20:19.321Z,77.65
2018-03-07T11:22:47.423Z,77.82
2018-03-07T11:25:17.078Z,77.42
2018-03-07T11:27:45.486Z,77.08
2018-03-07T11:30:15.549Z,77.27
2018-03-07T11:32:46.998Z,77.01
2018-03-07T11:35:15.239Z,76.60
2018-03-07T11:37:43.751Z,75.79
2018-03-07T11:40:11.993Z,75.18
2018-03-07T11:42:39.632Z,76.00
2018-03-07T11:45:07.332Z,76.00
2018-03-07T11:47:34.910Z,75.40
2018-03-07T11:50:02.526Z,74.48
2018-03-07T11:52:31.188Z,74.05
2018-03-07T11:55:01.354Z,73.10
2018-03-07T11:57:30.536Z,73.67
2018-03-07T12:00:02.710Z,73.61
2018-03-07T12:02:30.492Z,72.61
2018-03-07T12:04:58.120Z,73.51
2018-03-07T12:07:25.732Z,73.02
2018-03-07T12:09:53.419Z,73.27
2018-03-07T12:12:21.012Z,73.30
2018-03-07T12:14:48.811Z,73.77
2018-03-07T12:17:16.445Z,73.51
2018-03-07T12:19:44.080Z,73.07
2018-03-07T12:22:11.714Z,72.38
2018-03-07T12:24:39.581Z,72.95
2018-03-07T12:27:08.499Z,73.37
2018-03-07T12:29:36.180Z,72.59
2018-03-07T12:32:03.823Z,72.31
2018-03-07T12:34:31.472Z,72.22
2018-03-07T12:36:59.102Z,70.23
2018-03-07T12:39:28.385Z,69.43
2018-03-07T12:41:56.355Z,69.60
2018-03-07T12:44:30.886Z,69.19
2018-03-07T12:47:00.124Z,66.81
2018-03-07T12:49:28.633Z,66.70
2018-03-07T12:51:56.439Z,67.87
2018-03-07T12:54:24.837Z,68.82
2018-03-07T12:56:52.465Z,68.34
2018-03-07T12:59:20.129Z,67.58
2018-03-07T13:01:47.692Z,67.44
2018-03-07T13:04:15.411Z,67.13
2018-03-07T13:06:43.090Z,66.44
2018-03-07T13:09:15.252Z,65.71
2018-03-07T13:11:42.902Z,65.46
2018-03-07T13:14:12.618Z,65.97
2018-03-07T13:16:40.475Z,65.62
2018-03-07T13:19:09.274Z,64.22
2018-03-07T13:21:36.932Z,65.54
2018-03-07T13:24:04.639Z,65.83
2018-03-07T13:26:33.746Z,64.37
2018-03-07T13:29:02.283Z,60.44
2018-03-07T13:31:32.949Z,59.49
2018-03-07T13:34:04.951Z,59.54
2018-03-07T13:36:33.062Z,60.52
2018-03-07T13:39:01.587Z,59.35
2018-03-07T13:41:29.309Z,56.26
2018-03-07T13:44:05.705Z,53.96
2018-03-07T13:46:39.730Z,55.73
2018-03-07T13:49:28.574Z,57.48
2018-03-07T13:51:56.338Z,57.98
2018-03-07T13:54:25.484Z,60.70
2018-03-07T13:56:54.551Z,60.07
2018-03-07T13:59:26.648Z,61.81
2018-03-07T14:01:55.428Z,62.58
2018-03-07T14:04:23.467Z,63.73
2018-03-07T14:06:53.838Z,65.23
2018-03-07T14:09:24.597Z,64.24
2018-03-07T14:14:40.985Z,63.65
2018-03-07T14:17:14.730Z,62.93
2018-03-07T14:19:42.466Z,62.05
2018-03-07T14:22:10.685Z,60.72
2018-03-07T14:24:51.057Z,61.82
2018-03-07T14:27:26.523Z,61.61
2018-03-07T14:29:54.236Z,63.55
2018-03-07T14:32:24.638Z,61.88
2018-03-07T14:34:55.557Z,62.04
2018-03-07T14:37:38.073Z,61.95
2018-03-07T14:40:05.886Z,61.69
2018-03-07T14:42:33.503Z,60.94
2018-03-07T14:45:01.249Z,62.64
2018-03-07T14:47:30.341Z,64.46
2018-03-07T14:49:59.232Z,65.50
2018-03-07T14:52:27.115Z,64.02
2018-03-07T14:54:54.846Z,67.29
2018-03-07T14:57:27.005Z,69.55
2018-03-07T14:59:54.646Z,70.21
2018-03-07T15:02:23.987Z,71.50
2018-03-07T15:04:53.401Z,71.94
2018-03-07T15:07:22.412Z,73.68
2018-03-07T15:09:59.390Z,74.62
2018-03-07T15:12:27.838Z,74.77
2018-03-07T15:14:55.488Z,75.52
2018-03-07T15:17:24.144Z,76.54
2018-03-07T15:20:08.206Z,77.14
2018-03-07T15:22:42.267Z,77.50
2018-03-07T15:25:16.511Z,77.39
2018-03-07T15:27:50.181Z,76.39
2018-03-07T15:30:17.797Z,74.07
2018-03-07T15:32:46.547Z,73.70
2018-03-07T15:35:15.813Z,71.67
2018-03-07T15:37:48.311Z,70.38
2018-03-07T15:40:19.246Z,69.06
2018-03-07T15:43:01.763Z,68.39
2018-03-07T15:45:35.041Z,67.57
2018-03-07T15:48:06.535Z,65.11
2018-03-07T15:50:35.222Z,66.45
2018-03-07T15:53:04.102Z,66.96
2018-03-07T15:55:32.665Z,67.76
2018-03-07T15:58:00.854Z,69.23
2018-03-07T16:00:28.543Z,70.28
2018-03-07T16:02:56.304Z,71.61
2018-03-07T16:05:26.168Z,73.56
2018-03-07T16:07:55.123Z,74.39
2018-03-07T16:10:23.102Z,76.18
2018-03-07T16:12:50.896Z,78.60
2018-03-07T16:15:18.797Z,79.25
2018-03-07T16:17:46.502Z,80.01
2018-03-07T16:20:16.999Z,81.41
2018-03-07T16:22:46.696Z,82.25
2018-03-07T16:25:16.194Z,82.38
2018-03-07T16:27:44.219Z,82.86
2018-03-07T16:30:13.024Z,83.24
2018-03-07T16:32:41.586Z,83.31
2018-03-07T16:35:13.072Z,84.21
2018-03-07T16:37:41.869Z,84.35
2018-03-07T16:40:09.508Z,84.43
2018-03-07T16:42:38.323Z,84.88
2018-03-07T16:45:12.435Z,85.55
2018-03-07T16:47:43.928Z,86.39
2018-03-07T16:50:19.209Z,87.13
2018-03-07T16:52:56.016Z,87.99
2018-03-07T16:58:15.671Z,88.42
2018-03-07T17:00:50.767Z,88.77
2018-03-07T17:09:18.910Z,88.74
2018-03-07T17:11:58.817Z,88.52
2018-03-07T17:14:41.411Z,88.36
2018-03-07T17:19:58.277Z,88.97
2018-03-07T17:22:29.035Z,89.23
2018-03-07T17:25:03.703Z,89.51
2018-03-07T17:27:42.431Z,89.68
2018-03-07T17:30:18.969Z,89.63
2018-03-07T17:32:52.102Z,89.68
2018-03-07T17:38:19.239Z,89.25
2018-03-07T17:40:55.398Z,88.94
2018-03-07T17:43:34.993Z,88.86
2018-03-07T17:46:11.074Z,88.86
2018-03-07T17:51:56.034Z,88.96
2018-03-07T18:00:03.349Z,89.52
2018-03-07T18:05:49.265Z,89.50
2018-03-07T18:14:13.850Z,89.96
2018-03-07T18:25:26.162Z,89.97
2018-03-07T18:46:37.878Z,90.56
2018-03-07T18:51:46.802Z,91.14
2018-03-07T18:56:58.715Z,91.03
2018-03-07T18:59:38.669Z,91.22
2018-03-07T19:02:08.480Z,91.43
2018-03-07T19:04:38.785Z,91.44
2018-03-07T19:07:09.992Z,91.68
2018-03-07T19:15:51.792Z,92.38
2018-03-07T19:21:57.095Z,92.24
2018-03-07T19:30:16.783Z,92.59
2018-03-07T19:32:59.775Z,92.79
2018-03-07T19:55:58.886Z,93.08
2018-03-07T19:58:45.613Z,93.19
2018-03-07T20:16:01.562Z,93.09
2018-03-07T20:39:31.546Z,93.39
2018-03-07T20:42:03.721Z,93.78
2018-03-07T20:44:31.363Z,93.78
2018-03-07T20:46:59.176Z,93.93
2018-03-07T20:49:26.979Z,94.12
2018-03-07T20:51:54.911Z,94.08
2018-03-07T20:54:25.168Z,94.21
2018-03-07T20:56:52.713Z,94.21
2018-03-07T20:59:20.377Z,94.42
2018-03-07T21:01:48.011Z,94.83
2018-03-07T21:04:15.632Z,95.35
2018-03-07T21:06:43.209Z,95.21
2018-03-07T21:09:11.291Z,95.58
2018-03-07T21:11:38.904Z,95.64
2018-03-07T21:14:06.578Z,95.64
2018-03-07T21:16:34.702Z,95.71
2018-03-07T21:19:02.300Z,96.03
2018-03-07T21:21:30.541Z,96.25
2018-03-07T21:23:59.013Z,96.57
2018-03-07T21:26:28.771Z,96.84
2018-03-07T21:28:56.772Z,96.73
2018-03-07T21:31:24.346Z,96.59
2018-03-07T21:33:51.978Z,96.60
2018-03-07T21:36:19.781Z,96.49
2018-03-07T21:38:47.513Z,96.41
2018-03-07T21:41:15.116Z,96.34
2018-03-07T21:43:42.896Z,96.27
2018-03-07T21:46:10.663Z,96.23
2018-03-07T21:48:38.236Z,96.25
2018-03-07T21:51:06.198Z,96.13
2018-03-07T21:53:33.924Z,96.09
2018-03-07T21:56:01.522Z,96.11
2018-03-07T21:58:29.391Z,96.19
2018-03-07T22:00:57.022Z,96.39
2018-03-07T22:03:24.615Z,96.42
2018-03-07T22:05:52.460Z,96.34
2018-03-07T22:08:20.106Z,96.22
2018-03-07T22:10:47.667Z,96.18
2018-03-07T22:13:15.306Z,96.23
2018-03-07T22:15:42.935Z,96.33
2018-03-07T22:18:10.580Z,96.33
2018-03-07T22:20:38.142Z,96.43
2018-03-07T22:23:05.865Z,96.60
2018-03-07T22:25:33.477Z,96.43
2018-03-07T22:28:01.103Z,96.36
2018-03-07T22:30:28.715Z,96.19
2018-03-07T22:32:56.474Z,96.10
2018-03-07T22:35:24.077Z,95.97
2018-03-07T22:37:51.689Z,96.03
2018-03-07T22:40:19.260Z,96.05
2018-03-07T22:42:46.806Z,96.26
2018-03-07T22:45:14.423Z,96.26
2018-03-07T22:47:42.013Z,96.17
2018-03-07T22:50:09.635Z,96.12
2018-03-07T22:52:37.351Z,96.22
2018-03-07T22:55:05.143Z,96.22
2018-03-07T22:57:32.909Z,96.15
2018-03-07T23:00:00.621Z,96.17
2018-03-07T23:02:29.022Z,96.25
2018-03-07T23:05:03.434Z,96.20
2018-03-07T23:07:31.970Z,96.09
2018-03-07T23:10:00.652Z,96.00
2018-03-07T23:12:28.520Z,96.07
2018-03-07T23:14:56.465Z,96.11
2018-03-07T23:17:26.309Z,96.02
2018-03-07T23:19:54.163Z,96.02
2018-03-07T23:22:21.833Z,95.88
2018-03-07T23:24:49.623Z,95.90
2018-03-07T23:27:20.159Z,95.89
2018-03-07T23:29:47.811Z,95.83
2018-03-07T23:32:19.721Z,95.96
2018-03-07T23:34:48.150Z,96.00
2018-03-07T23:37:16.115Z,95.91
2018-03-07T23:39:43.816Z,95.81
2018-03-07T23:42:11.664Z,95.49
2018-03-07T23:44:42.800Z,95.55
2018-03-07T23:47:11.276Z,95.23
2018-03-07T23:49:40.366Z,95.42
2018-03-07T23:52:10.750Z,95.57
2018-03-07T23:54:39.202Z,95.60
2018-03-07T23:57:07.217Z,95.89
2018-03-07T23:59:34.842Z,96.14
